sensor_id;sensor_type;location;lat;lon;timestamp;P1;durP1;ratioP1;P2;durP2;ratioP2
67867;SDS011;54672;46.096;14.470;2022-08-05T00:01:33;4.57;;;3.50;;
67867;SDS011;54672;46.096;14.470;2022-08-05T00:03:59;5.07;;;3.70;;
67867;SDS011;54672;46.096;14.470;2022-08-05T00:06:25;6.47;;;3.65;;
67867;SDS011;54672;46.096;14.470;2022-08-05T00:08:51;5.72;;;4.22;;
67867;SDS011;54672;46.096;14.470;2022-08-05T00:11:16;4.80;;;3.70;;
67867;SDS011;54672;46.096;14.470;2022-08-05T00:13:42;4.78;;;3.80;;
67867;SDS011;54672;46.096;14.470;2022-08-05T00:16:10;6.05;;;3.80;;
67867;SDS011;54672;46.096;14.470;2022-08-05T00:18:37;5.57;;;4.20;;
67867;SDS011;54672;46.096;14.470;2022-08-05T00:21:04;7.00;;;4.20;;
67867;SDS011;54672;46.096;14.470;2022-08-05T00:23:30;5.60;;;4.10;;
67867;SDS011;54672;46.096;14.470;2022-08-05T00:25:55;5.32;;;4.07;;
67867;SDS011;54672;46.096;14.470;2022-08-05T00:28:21;6.55;;;4.10;;
67867;SDS011;54672;46.096;14.470;2022-08-05T00:30:46;5.35;;;3.95;;
67867;SDS011;54672;46.096;14.470;2022-08-05T00:33:12;6.07;;;4.13;;
67867;SDS011;54672;46.096;14.470;2022-08-05T00:35:37;6.78;;;3.90;;
67867;SDS011;54672;46.096;14.470;2022-08-05T00:38:03;4.72;;;4.03;;
67867;SDS011;54672;46.096;14.470;2022-08-05T00:40:28;6.53;;;4.10;;
67867;SDS011;54672;46.096;14.470;2022-08-05T00:42:58;6.07;;;4.25;;
67867;SDS011;54672;46.096;14.470;2022-08-05T00:45:26;9.07;;;4.10;;
67867;SDS011;54672;46.096;14.470;2022-08-05T00:47:52;5.22;;;4.10;;
67867;SDS011;54672;46.096;14.470;2022-08-05T00:50:17;4.95;;;4.10;;
67867;SDS011;54672;46.096;14.470;2022-08-05T00:52:43;7.78;;;4.78;;
67867;SDS011;54672;46.096;14.470;2022-08-05T00:55:08;5.78;;;4.40;;
67867;SDS011;54672;46.096;14.470;2022-08-05T00:57:34;5.75;;;4.25;;
67867;SDS011;54672;46.096;14.470;2022-08-05T00:59:59;8.45;;;4.70;;
67867;SDS011;54672;46.096;14.470;2022-08-05T01:02:26;6.35;;;4.50;;
67867;SDS011;54672;46.096;14.470;2022-08-05T01:04:51;7.68;;;4.30;;
67867;SDS011;54672;46.096;14.470;2022-08-05T01:07:16;7.22;;;4.60;;
67867;SDS011;54672;46.096;14.470;2022-08-05T01:09:42;7.97;;;4.57;;
67867;SDS011;54672;46.096;14.470;2022-08-05T01:12:08;7.07;;;4.65;;
67867;SDS011;54672;46.096;14.470;2022-08-05T01:14:40;5.95;;;4.80;;
67867;SDS011;54672;46.096;14.470;2022-08-05T01:17:19;6.20;;;4.55;;
67867;SDS011;54672;46.096;14.470;2022-08-05T01:28:30;5.10;;;4.45;;
67867;SDS011;54672;46.096;14.470;2022-08-05T01:31:01;6.90;;;4.43;;
67867;SDS011;54672;46.096;14.470;2022-08-05T01:33:34;5.15;;;4.30;;
67867;SDS011;54672;46.096;14.470;2022-08-05T01:36:10;7.35;;;4.97;;
67867;SDS011;54672;46.096;14.470;2022-08-05T01:38:39;5.38;;;4.00;;
67867;SDS011;54672;46.096;14.470;2022-08-05T01:41:06;7.40;;;5.10;;
67867;SDS011;54672;46.096;14.470;2022-08-05T01:43:33;7.63;;;4.57;;
67867;SDS011;54672;46.096;14.470;2022-08-05T01:46:00;8.18;;;4.72;;
67867;SDS011;54672;46.096;14.470;2022-08-05T01:48:26;6.10;;;4.88;;
67867;SDS011;54672;46.096;14.470;2022-08-05T01:50:53;5.18;;;4.35;;
67867;SDS011;54672;46.096;14.470;2022-08-05T01:53:20;6.45;;;4.70;;
67867;SDS011;54672;46.096;14.470;2022-08-05T01:55:48;6.03;;;4.82;;
67867;SDS011;54672;46.096;14.470;2022-08-05T01:58:15;6.50;;;5.22;;
67867;SDS011;54672;46.096;14.470;2022-08-05T02:00:43;5.85;;;4.88;;
67867;SDS011;54672;46.096;14.470;2022-08-05T02:03:20;7.20;;;5.03;;
67867;SDS011;54672;46.096;14.470;2022-08-05T02:05:53;7.80;;;5.15;;
67867;SDS011;54672;46.096;14.470;2022-08-05T02:08:19;7.00;;;5.20;;
67867;SDS011;54672;46.096;14.470;2022-08-05T02:10:47;6.90;;;5.00;;
67867;SDS011;54672;46.096;14.470;2022-08-05T02:13:17;8.45;;;5.20;;
67867;SDS011;54672;46.096;14.470;2022-08-05T02:15:58;9.32;;;4.82;;
67867;SDS011;54672;46.096;14.470;2022-08-05T02:18:42;7.22;;;4.93;;
67867;SDS011;54672;46.096;14.470;2022-08-05T02:21:12;7.10;;;5.00;;
67867;SDS011;54672;46.096;14.470;2022-08-05T02:23:42;6.03;;;5.18;;
67867;SDS011;54672;46.096;14.470;2022-08-05T02:26:10;7.15;;;4.93;;
67867;SDS011;54672;46.096;14.470;2022-08-05T02:28:40;6.97;;;5.45;;
67867;SDS011;54672;46.096;14.470;2022-08-05T02:31:11;7.00;;;5.18;;
67867;SDS011;54672;46.096;14.470;2022-08-05T02:33:42;8.57;;;5.10;;
67867;SDS011;54672;46.096;14.470;2022-08-05T02:36:15;6.63;;;5.05;;
67867;SDS011;54672;46.096;14.470;2022-08-05T02:38:44;8.35;;;5.38;;
67867;SDS011;54672;46.096;14.470;2022-08-05T02:41:11;7.05;;;5.20;;
67867;SDS011;54672;46.096;14.470;2022-08-05T02:43:38;7.03;;;4.93;;
67867;SDS011;54672;46.096;14.470;2022-08-05T02:46:06;11.43;;;5.28;;
67867;SDS011;54672;46.096;14.470;2022-08-05T02:48:31;7.88;;;4.93;;
67867;SDS011;54672;46.096;14.470;2022-08-05T02:51:01;6.97;;;5.30;;
67867;SDS011;54672;46.096;14.470;2022-08-05T02:53:31;7.32;;;5.35;;
67867;SDS011;54672;46.096;14.470;2022-08-05T02:55:57;6.15;;;4.97;;
67867;SDS011;54672;46.096;14.470;2022-08-05T02:58:23;7.38;;;4.93;;
67867;SDS011;54672;46.096;14.470;2022-08-05T03:00:49;6.47;;;5.32;;
67867;SDS011;54672;46.096;14.470;2022-08-05T03:03:19;7.13;;;5.28;;
67867;SDS011;54672;46.096;14.470;2022-08-05T03:05:45;7.78;;;5.22;;
67867;SDS011;54672;46.096;14.470;2022-08-05T03:08:11;9.80;;;4.97;;
67867;SDS011;54672;46.096;14.470;2022-08-05T03:10:40;8.85;;;5.25;;
67867;SDS011;54672;46.096;14.470;2022-08-05T03:13:13;6.30;;;5.05;;
67867;SDS011;54672;46.096;14.470;2022-08-05T03:15:40;7.25;;;5.60;;
67867;SDS011;54672;46.096;14.470;2022-08-05T03:18:07;7.47;;;5.60;;
67867;SDS011;54672;46.096;14.470;2022-08-05T03:20:32;8.02;;;5.68;;
67867;SDS011;54672;46.096;14.470;2022-08-05T03:22:58;7.90;;;5.93;;
67867;SDS011;54672;46.096;14.470;2022-08-05T03:25:24;8.75;;;5.63;;
67867;SDS011;54672;46.096;14.470;2022-08-05T03:27:50;7.18;;;5.65;;
67867;SDS011;54672;46.096;14.470;2022-08-05T03:30:16;7.45;;;5.40;;
67867;SDS011;54672;46.096;14.470;2022-08-05T03:32:41;10.75;;;5.25;;
67867;SDS011;54672;46.096;14.470;2022-08-05T03:35:07;7.43;;;5.28;;
67867;SDS011;54672;46.096;14.470;2022-08-05T03:37:33;7.05;;;5.50;;
67867;SDS011;54672;46.096;14.470;2022-08-05T03:39:58;8.15;;;5.50;;
67867;SDS011;54672;46.096;14.470;2022-08-05T03:42:24;9.10;;;5.82;;
67867;SDS011;54672;46.096;14.470;2022-08-05T03:44:50;10.23;;;5.60;;
67867;SDS011;54672;46.096;14.470;2022-08-05T03:47:16;8.52;;;6.07;;
67867;SDS011;54672;46.096;14.470;2022-08-05T03:49:41;9.25;;;6.10;;
67867;SDS011;54672;46.096;14.470;2022-08-05T03:52:10;7.40;;;5.85;;
67867;SDS011;54672;46.096;14.470;2022-08-05T03:57:06;7.95;;;5.53;;
67867;SDS011;54672;46.096;14.470;2022-08-05T03:59:39;8.07;;;5.80;;
67867;SDS011;54672;46.096;14.470;2022-08-05T04:02:07;7.80;;;5.88;;
67867;SDS011;54672;46.096;14.470;2022-08-05T04:04:35;8.38;;;5.78;;
67867;SDS011;54672;46.096;14.470;2022-08-05T04:07:01;12.10;;;5.90;;
67867;SDS011;54672;46.096;14.470;2022-08-05T04:09:29;6.65;;;5.50;;
67867;SDS011;54672;46.096;14.470;2022-08-05T04:11:56;6.75;;;5.85;;
67867;SDS011;54672;46.096;14.470;2022-08-05T04:14:21;10.35;;;5.47;;
67867;SDS011;54672;46.096;14.470;2022-08-05T04:16:48;6.32;;;5.15;;
67867;SDS011;54672;46.096;14.470;2022-08-05T04:19:14;7.57;;;5.38;;
67867;SDS011;54672;46.096;14.470;2022-08-05T04:21:40;7.32;;;4.85;;
67867;SDS011;54672;46.096;14.470;2022-08-05T04:24:05;8.55;;;5.20;;
67867;SDS011;54672;46.096;14.470;2022-08-05T04:26:31;5.78;;;4.95;;
67867;SDS011;54672;46.096;14.470;2022-08-05T04:28:57;6.97;;;4.95;;
67867;SDS011;54672;46.096;14.470;2022-08-05T04:31:22;5.93;;;4.72;;
67867;SDS011;54672;46.096;14.470;2022-08-05T04:33:48;7.32;;;4.90;;
67867;SDS011;54672;46.096;14.470;2022-08-05T04:36:13;8.38;;;4.95;;
67867;SDS011;54672;46.096;14.470;2022-08-05T04:38:39;7.20;;;4.93;;
67867;SDS011;54672;46.096;14.470;2022-08-05T04:41:06;6.93;;;4.90;;
67867;SDS011;54672;46.096;14.470;2022-08-05T04:43:32;6.78;;;4.75;;
67867;SDS011;54672;46.096;14.470;2022-08-05T04:45:57;8.38;;;5.38;;
67867;SDS011;54672;46.096;14.470;2022-08-05T04:48:22;6.22;;;4.90;;
67867;SDS011;54672;46.096;14.470;2022-08-05T04:50:48;6.80;;;4.85;;
67867;SDS011;54672;46.096;14.470;2022-08-05T04:53:14;7.30;;;4.72;;
67867;SDS011;54672;46.096;14.470;2022-08-05T04:55:41;5.43;;;4.85;;
67867;SDS011;54672;46.096;14.470;2022-08-05T04:58:09;5.93;;;5.03;;
67867;SDS011;54672;46.096;14.470;2022-08-05T05:00:37;5.38;;;4.88;;
67867;SDS011;54672;46.096;14.470;2022-08-05T05:03:04;6.00;;;4.90;;
67867;SDS011;54672;46.096;14.470;2022-08-05T05:05:30;9.73;;;5.10;;
67867;SDS011;54672;46.096;14.470;2022-08-05T05:08:04;6.25;;;4.93;;
67867;SDS011;54672;46.096;14.470;2022-08-05T05:10:31;8.77;;;4.78;;
67867;SDS011;54672;46.096;14.470;2022-08-05T05:13:01;6.68;;;4.60;;
67867;SDS011;54672;46.096;14.470;2022-08-05T05:15:27;7.25;;;4.72;;
67867;SDS011;54672;46.096;14.470;2022-08-05T05:17:52;5.63;;;4.82;;
67867;SDS011;54672;46.096;14.470;2022-08-05T05:20:18;5.55;;;4.45;;
67867;SDS011;54672;46.096;14.470;2022-08-05T05:22:43;10.13;;;5.28;;
67867;SDS011;54672;46.096;14.470;2022-08-05T05:25:08;7.70;;;4.88;;
67867;SDS011;54672;46.096;14.470;2022-08-05T05:27:34;7.00;;;5.20;;
67867;SDS011;54672;46.096;14.470;2022-08-05T05:30:00;6.00;;;5.00;;
67867;SDS011;54672;46.096;14.470;2022-08-05T05:32:26;6.18;;;5.15;;
67867;SDS011;54672;46.096;14.470;2022-08-05T05:34:52;7.22;;;5.65;;
67867;SDS011;54672;46.096;14.470;2022-08-05T05:37:17;9.40;;;6.00;;
67867;SDS011;54672;46.096;14.470;2022-08-05T05:39:43;6.53;;;4.93;;
67867;SDS011;54672;46.096;14.470;2022-08-05T05:42:09;8.52;;;6.10;;
67867;SDS011;54672;46.096;14.470;2022-08-05T05:44:35;8.07;;;6.90;;
67867;SDS011;54672;46.096;14.470;2022-08-05T05:47:00;7.78;;;5.75;;
67867;SDS011;54672;46.096;14.470;2022-08-05T05:49:26;8.48;;;5.57;;
67867;SDS011;54672;46.096;14.470;2022-08-05T05:51:52;7.38;;;5.80;;
67867;SDS011;54672;46.096;14.470;2022-08-05T05:54:18;6.05;;;5.15;;
67867;SDS011;54672;46.096;14.470;2022-08-05T05:56:43;8.13;;;5.30;;
67867;SDS011;54672;46.096;14.470;2022-08-05T05:59:09;10.45;;;5.35;;
67867;SDS011;54672;46.096;14.470;2022-08-05T06:01:36;9.60;;;5.63;;
67867;SDS011;54672;46.096;14.470;2022-08-05T06:04:02;7.50;;;4.95;;
67867;SDS011;54672;46.096;14.470;2022-08-05T06:06:28;7.30;;;5.25;;
67867;SDS011;54672;46.096;14.470;2022-08-05T06:08:53;7.10;;;5.10;;
67867;SDS011;54672;46.096;14.470;2022-08-05T06:11:19;10.05;;;5.15;;
67867;SDS011;54672;46.096;14.470;2022-08-05T06:13:44;8.18;;;5.38;;
67867;SDS011;54672;46.096;14.470;2022-08-05T06:16:10;7.78;;;5.00;;
67867;SDS011;54672;46.096;14.470;2022-08-05T06:18:35;6.65;;;5.38;;
67867;SDS011;54672;46.096;14.470;2022-08-05T06:21:01;8.48;;;5.60;;
67867;SDS011;54672;46.096;14.470;2022-08-05T06:23:27;10.00;;;5.80;;
67867;SDS011;54672;46.096;14.470;2022-08-05T06:25:53;8.93;;;5.70;;
67867;SDS011;54672;46.096;14.470;2022-08-05T06:28:18;9.48;;;5.30;;
67867;SDS011;54672;46.096;14.470;2022-08-05T06:30:44;9.80;;;5.00;;
67867;SDS011;54672;46.096;14.470;2022-08-05T06:33:09;7.53;;;5.40;;
67867;SDS011;54672;46.096;14.470;2022-08-05T06:35:35;5.90;;;5.25;;
67867;SDS011;54672;46.096;14.470;2022-08-05T06:38:00;11.32;;;5.22;;
67867;SDS011;54672;46.096;14.470;2022-08-05T06:40:25;7.57;;;5.43;;
67867;SDS011;54672;46.096;14.470;2022-08-05T06:42:51;8.30;;;6.22;;
67867;SDS011;54672;46.096;14.470;2022-08-05T06:45:16;5.30;;;4.80;;
67867;SDS011;54672;46.096;14.470;2022-08-05T06:47:42;7.63;;;5.10;;
67867;SDS011;54672;46.096;14.470;2022-08-05T06:50:07;8.05;;;5.10;;
67867;SDS011;54672;46.096;14.470;2022-08-05T06:52:33;5.53;;;5.00;;
67867;SDS011;54672;46.096;14.470;2022-08-05T06:54:59;5.22;;;4.72;;
67867;SDS011;54672;46.096;14.470;2022-08-05T06:57:24;9.40;;;5.43;;
67867;SDS011;54672;46.096;14.470;2022-08-05T06:59:49;6.72;;;4.90;;
67867;SDS011;54672;46.096;14.470;2022-08-05T07:02:15;5.55;;;4.82;;
67867;SDS011;54672;46.096;14.470;2022-08-05T07:04:40;5.57;;;5.03;;
67867;SDS011;54672;46.096;14.470;2022-08-05T07:07:06;6.75;;;4.90;;
67867;SDS011;54672;46.096;14.470;2022-08-05T07:09:31;6.38;;;4.93;;
67867;SDS011;54672;46.096;14.470;2022-08-05T07:11:56;6.68;;;5.00;;
67867;SDS011;54672;46.096;14.470;2022-08-05T07:14:23;6.25;;;4.72;;
67867;SDS011;54672;46.096;14.470;2022-08-05T07:17:07;5.97;;;5.18;;
67867;SDS011;54672;46.096;14.470;2022-08-05T07:19:33;5.75;;;4.40;;
67867;SDS011;54672;46.096;14.470;2022-08-05T07:21:59;4.60;;;4.20;;
67867;SDS011;54672;46.096;14.470;2022-08-05T07:24:24;4.90;;;4.35;;
67867;SDS011;54672;46.096;14.470;2022-08-05T07:26:50;7.72;;;5.13;;
67867;SDS011;54672;46.096;14.470;2022-08-05T07:29:16;4.53;;;4.13;;
67867;SDS011;54672;46.096;14.470;2022-08-05T07:31:42;5.13;;;4.63;;
67867;SDS011;54672;46.096;14.470;2022-08-05T07:34:08;7.25;;;5.18;;
67867;SDS011;54672;46.096;14.470;2022-08-05T07:36:33;6.68;;;5.38;;
67867;SDS011;54672;46.096;14.470;2022-08-05T07:39:00;6.90;;;4.60;;
67867;SDS011;54672;46.096;14.470;2022-08-05T07:41:27;5.18;;;4.68;;
67867;SDS011;54672;46.096;14.470;2022-08-05T07:43:54;5.32;;;4.80;;
67867;SDS011;54672;46.096;14.470;2022-08-05T07:46:20;5.18;;;4.68;;
67867;SDS011;54672;46.096;14.470;2022-08-05T07:48:46;5.47;;;4.57;;
67867;SDS011;54672;46.096;14.470;2022-08-05T07:51:11;5.15;;;4.25;;
67867;SDS011;54672;46.096;14.470;2022-08-05T07:53:37;6.93;;;4.70;;
67867;SDS011;54672;46.096;14.470;2022-08-05T07:56:03;6.07;;;4.32;;
67867;SDS011;54672;46.096;14.470;2022-08-05T07:58:28;7.40;;;4.60;;
67867;SDS011;54672;46.096;14.470;2022-08-05T08:00:54;5.43;;;4.35;;
67867;SDS011;54672;46.096;14.470;2022-08-05T08:03:20;6.10;;;4.43;;
67867;SDS011;54672;46.096;14.470;2022-08-05T08:05:45;7.10;;;4.80;;
67867;SDS011;54672;46.096;14.470;2022-08-05T08:08:12;6.50;;;4.65;;
67867;SDS011;54672;46.096;14.470;2022-08-05T08:10:38;14.02;;;6.30;;
67867;SDS011;54672;46.096;14.470;2022-08-05T08:13:04;5.68;;;4.15;;
67867;SDS011;54672;46.096;14.470;2022-08-05T08:15:30;6.88;;;4.18;;
67867;SDS011;54672;46.096;14.470;2022-08-05T08:17:55;6.30;;;4.00;;
67867;SDS011;54672;46.096;14.470;2022-08-05T08:20:21;5.75;;;4.28;;
67867;SDS011;54672;46.096;14.470;2022-08-05T08:22:51;5.60;;;4.40;;
67867;SDS011;54672;46.096;14.470;2022-08-05T08:25:18;5.50;;;4.43;;
67867;SDS011;54672;46.096;14.470;2022-08-05T08:27:44;6.70;;;4.25;;
67867;SDS011;54672;46.096;14.470;2022-08-05T08:30:10;6.55;;;4.60;;
67867;SDS011;54672;46.096;14.470;2022-08-05T08:32:36;6.22;;;4.50;;
67867;SDS011;54672;46.096;14.470;2022-08-05T08:35:01;8.90;;;4.43;;
67867;SDS011;54672;46.096;14.470;2022-08-05T08:37:27;5.20;;;4.35;;
67867;SDS011;54672;46.096;14.470;2022-08-05T08:39:53;7.22;;;4.63;;
67867;SDS011;54672;46.096;14.470;2022-08-05T08:42:18;8.85;;;4.32;;
67867;SDS011;54672;46.096;14.470;2022-08-05T08:44:46;6.32;;;4.80;;
67867;SDS011;54672;46.096;14.470;2022-08-05T08:47:12;7.13;;;4.55;;
67867;SDS011;54672;46.096;14.470;2022-08-05T08:49:42;12.75;;;4.78;;
67867;SDS011;54672;46.096;14.470;2022-08-05T08:52:10;5.00;;;3.80;;
67867;SDS011;54672;46.096;14.470;2022-08-05T08:54:37;5.43;;;4.20;;
67867;SDS011;54672;46.096;14.470;2022-08-05T08:57:06;7.10;;;3.90;;
67867;SDS011;54672;46.096;14.470;2022-08-05T08:59:32;6.68;;;4.13;;
67867;SDS011;54672;46.096;14.470;2022-08-05T09:02:00;5.28;;;3.80;;
67867;SDS011;54672;46.096;14.470;2022-08-05T09:04:29;6.00;;;3.75;;
67867;SDS011;54672;46.096;14.470;2022-08-05T09:06:54;6.88;;;4.18;;
67867;SDS011;54672;46.096;14.470;2022-08-05T09:09:19;4.95;;;4.18;;
67867;SDS011;54672;46.096;14.470;2022-08-05T09:11:45;6.35;;;4.68;;
67867;SDS011;54672;46.096;14.470;2022-08-05T09:14:11;7.28;;;4.00;;
67867;SDS011;54672;46.096;14.470;2022-08-05T09:16:37;7.00;;;3.88;;
67867;SDS011;54672;46.096;14.470;2022-08-05T09:19:03;5.70;;;3.58;;
67867;SDS011;54672;46.096;14.470;2022-08-05T09:21:31;6.70;;;3.70;;
67867;SDS011;54672;46.096;14.470;2022-08-05T09:24:03;9.48;;;4.22;;
67867;SDS011;54672;46.096;14.470;2022-08-05T09:26:32;5.05;;;3.53;;
67867;SDS011;54672;46.096;14.470;2022-08-05T09:28:59;3.92;;;3.53;;
67867;SDS011;54672;46.096;14.470;2022-08-05T09:31:28;7.07;;;3.60;;
67867;SDS011;54672;46.096;14.470;2022-08-05T09:33:55;6.00;;;4.00;;
67867;SDS011;54672;46.096;14.470;2022-08-05T09:36:23;7.35;;;3.90;;
67867;SDS011;54672;46.096;14.470;2022-08-05T09:39:02;10.30;;;3.92;;
67867;SDS011;54672;46.096;14.470;2022-08-05T09:41:30;3.80;;;3.40;;
67867;SDS011;54672;46.096;14.470;2022-08-05T09:43:55;6.15;;;3.50;;
67867;SDS011;54672;46.096;14.470;2022-08-05T09:48:54;5.85;;;3.80;;
67867;SDS011;54672;46.096;14.470;2022-08-05T09:51:31;4.43;;;3.85;;
67867;SDS011;54672;46.096;14.470;2022-08-05T09:53:58;5.18;;;4.28;;
67867;SDS011;54672;46.096;14.470;2022-08-05T09:56:24;4.82;;;3.45;;
67867;SDS011;54672;46.096;14.470;2022-08-05T09:58:55;6.40;;;3.83;;
67867;SDS011;54672;46.096;14.470;2022-08-05T10:01:25;5.47;;;3.58;;
67867;SDS011;54672;46.096;14.470;2022-08-05T10:03:58;4.70;;;3.55;;
67867;SDS011;54672;46.096;14.470;2022-08-05T10:06:31;6.40;;;4.00;;
67867;SDS011;54672;46.096;14.470;2022-08-05T10:09:13;5.88;;;3.58;;
67867;SDS011;54672;46.096;14.470;2022-08-05T10:11:40;4.88;;;3.85;;
67867;SDS011;54672;46.096;14.470;2022-08-05T10:14:23;3.92;;;3.53;;
67867;SDS011;54672;46.096;14.470;2022-08-05T10:16:52;6.47;;;3.50;;
67867;SDS011;54672;46.096;14.470;2022-08-05T10:19:25;3.35;;;3.00;;
67867;SDS011;54672;46.096;14.470;2022-08-05T10:21:51;5.38;;;3.50;;
67867;SDS011;54672;46.096;14.470;2022-08-05T10:24:17;4.10;;;3.30;;
67867;SDS011;54672;46.096;14.470;2022-08-05T10:26:44;3.67;;;3.10;;
67867;SDS011;54672;46.096;14.470;2022-08-05T10:29:11;3.40;;;3.10;;
67867;SDS011;54672;46.096;14.470;2022-08-05T10:31:37;5.13;;;3.20;;
67867;SDS011;54672;46.096;14.470;2022-08-05T10:34:06;3.90;;;3.33;;
67867;SDS011;54672;46.096;14.470;2022-08-05T10:36:32;3.72;;;3.22;;
67867;SDS011;54672;46.096;14.470;2022-08-05T10:39:06;4.03;;;3.63;;
67867;SDS011;54672;46.096;14.470;2022-08-05T10:41:46;3.60;;;3.30;;
67867;SDS011;54672;46.096;14.470;2022-08-05T10:44:20;4.95;;;3.65;;
67867;SDS011;54672;46.096;14.470;2022-08-05T10:46:47;4.05;;;3.65;;
67867;SDS011;54672;46.096;14.470;2022-08-05T10:49:14;5.32;;;3.42;;
67867;SDS011;54672;46.096;14.470;2022-08-05T10:51:43;3.58;;;3.28;;
67867;SDS011;54672;46.096;14.470;2022-08-05T10:54:10;4.75;;;3.20;;
67867;SDS011;54672;46.096;14.470;2022-08-05T10:56:46;4.57;;;3.47;;
67867;SDS011;54672;46.096;14.470;2022-08-05T10:59:17;5.95;;;3.30;;
67867;SDS011;54672;46.096;14.470;2022-08-05T11:01:44;5.85;;;3.50;;
67867;SDS011;54672;46.096;14.470;2022-08-05T11:04:14;3.63;;;3.22;;
67867;SDS011;54672;46.096;14.470;2022-08-05T11:09:23;3.67;;;3.15;;
67867;SDS011;54672;46.096;14.470;2022-08-05T11:11:50;4.13;;;3.30;;
67867;SDS011;54672;46.096;14.470;2022-08-05T11:14:27;3.58;;;3.17;;
67867;SDS011;54672;46.096;14.470;2022-08-05T11:19:54;3.90;;;3.35;;
67867;SDS011;54672;46.096;14.470;2022-08-05T11:33:51;5.90;;;3.25;;
67867;SDS011;54672;46.096;14.470;2022-08-05T11:36:18;3.45;;;3.08;;
67867;SDS011;54672;46.096;14.470;2022-08-05T11:39:03;4.05;;;3.10;;
67867;SDS011;54672;46.096;14.470;2022-08-05T11:41:32;4.18;;;3.35;;
67867;SDS011;54672;46.096;14.470;2022-08-05T11:48:56;4.07;;;3.30;;
67867;SDS011;54672;46.096;14.470;2022-08-05T11:51:23;3.40;;;3.10;;
67867;SDS011;54672;46.096;14.470;2022-08-05T11:53:49;3.80;;;3.05;;
67867;SDS011;54672;46.096;14.470;2022-08-05T11:56:15;4.38;;;3.15;;
67867;SDS011;54672;46.096;14.470;2022-08-05T11:58:42;3.30;;;3.00;;
67867;SDS011;54672;46.096;14.470;2022-08-05T12:01:09;3.90;;;3.50;;
67867;SDS011;54672;46.096;14.470;2022-08-05T12:03:40;3.80;;;3.40;;
67867;SDS011;54672;46.096;14.470;2022-08-05T12:06:13;4.63;;;3.25;;
67867;SDS011;54672;46.096;14.470;2022-08-05T12:08:40;3.70;;;3.25;;
67867;SDS011;54672;46.096;14.470;2022-08-05T12:11:08;3.65;;;3.17;;
67867;SDS011;54672;46.096;14.470;2022-08-05T12:13:35;3.30;;;3.00;;
67867;SDS011;54672;46.096;14.470;2022-08-05T12:16:02;3.30;;;3.00;;
67867;SDS011;54672;46.096;14.470;2022-08-05T12:18:41;3.97;;;3.15;;
67867;SDS011;54672;46.096;14.470;2022-08-05T12:21:14;6.20;;;3.10;;
67867;SDS011;54672;46.096;14.470;2022-08-05T12:26:22;3.58;;;3.20;;
67867;SDS011;54672;46.096;14.470;2022-08-05T12:28:48;3.22;;;2.90;;
67867;SDS011;54672;46.096;14.470;2022-08-05T12:31:13;5.93;;;3.47;;
67867;SDS011;54672;46.096;14.470;2022-08-05T12:33:40;3.72;;;3.13;;
67867;SDS011;54672;46.096;14.470;2022-08-05T12:36:07;3.90;;;3.35;;
67867;SDS011;54672;46.096;14.470;2022-08-05T12:38:35;4.43;;;3.13;;
67867;SDS011;54672;46.096;14.470;2022-08-05T12:41:02;3.78;;;2.97;;
67867;SDS011;54672;46.096;14.470;2022-08-05T12:43:30;3.45;;;3.00;;
67867;SDS011;54672;46.096;14.470;2022-08-05T12:45:56;4.85;;;2.78;;
67867;SDS011;54672;46.096;14.470;2022-08-05T12:48:21;3.15;;;2.80;;
67867;SDS011;54672;46.096;14.470;2022-08-05T12:51:08;4.65;;;2.90;;
67867;SDS011;54672;46.096;14.470;2022-08-05T12:53:33;3.50;;;3.20;;
67867;SDS011;54672;46.096;14.470;2022-08-05T12:56:19;3.03;;;2.72;;
67867;SDS011;54672;46.096;14.470;2022-08-05T12:59:09;4.93;;;2.80;;
67867;SDS011;54672;46.096;14.470;2022-08-05T13:04:27;3.30;;;3.00;;
67867;SDS011;54672;46.096;14.470;2022-08-05T13:06:57;4.90;;;2.78;;
67867;SDS011;54672;46.096;14.470;2022-08-05T13:09:24;3.33;;;2.80;;
67867;SDS011;54672;46.096;14.470;2022-08-05T13:11:54;3.33;;;3.03;;
67867;SDS011;54672;46.096;14.470;2022-08-05T13:14:25;3.65;;;3.10;;
67867;SDS011;54672;46.096;14.470;2022-08-05T13:16:52;4.20;;;3.25;;
67867;SDS011;54672;46.096;14.470;2022-08-05T13:19:20;3.40;;;3.05;;
67867;SDS011;54672;46.096;14.470;2022-08-05T13:21:47;3.60;;;2.97;;
67867;SDS011;54672;46.096;14.470;2022-08-05T13:24:13;4.25;;;2.85;;
67867;SDS011;54672;46.096;14.470;2022-08-05T13:26:39;4.88;;;3.00;;
67867;SDS011;54672;46.096;14.470;2022-08-05T13:29:04;5.03;;;3.15;;
67867;SDS011;54672;46.096;14.470;2022-08-05T13:31:29;3.55;;;2.88;;
67867;SDS011;54672;46.096;14.470;2022-08-05T13:33:55;4.28;;;3.22;;
67867;SDS011;54672;46.096;14.470;2022-08-05T13:36:21;3.42;;;3.10;;
67867;SDS011;54672;46.096;14.470;2022-08-05T13:38:46;4.13;;;3.00;;
67867;SDS011;54672;46.096;14.470;2022-08-05T13:41:11;3.45;;;3.15;;
67867;SDS011;54672;46.096;14.470;2022-08-05T13:43:39;3.95;;;3.20;;
67867;SDS011;54672;46.096;14.470;2022-08-05T13:46:04;4.20;;;3.05;;
67867;SDS011;54672;46.096;14.470;2022-08-05T13:48:30;4.90;;;3.47;;
67867;SDS011;54672;46.096;14.470;2022-08-05T13:51:03;4.20;;;3.08;;
67867;SDS011;54672;46.096;14.470;2022-08-05T13:53:30;3.25;;;2.95;;
67867;SDS011;54672;46.096;14.470;2022-08-05T13:55:57;5.60;;;3.03;;
67867;SDS011;54672;46.096;14.470;2022-08-05T13:58:22;3.53;;;2.83;;
67867;SDS011;54672;46.096;14.470;2022-08-05T14:00:48;3.30;;;3.00;;
67867;SDS011;54672;46.096;14.470;2022-08-05T14:03:13;3.13;;;2.83;;
67867;SDS011;54672;46.096;14.470;2022-08-05T14:05:38;4.47;;;3.22;;
67867;SDS011;54672;46.096;14.470;2022-08-05T14:08:04;4.72;;;3.20;;
67867;SDS011;54672;46.096;14.470;2022-08-05T14:10:29;3.85;;;3.38;;
67867;SDS011;54672;46.096;14.470;2022-08-05T14:12:55;6.05;;;3.00;;
67867;SDS011;54672;46.096;14.470;2022-08-05T14:15:20;3.10;;;2.75;;
67867;SDS011;54672;46.096;14.470;2022-08-05T14:17:46;3.65;;;2.80;;
67867;SDS011;54672;46.096;14.470;2022-08-05T14:20:11;3.45;;;3.15;;
67867;SDS011;54672;46.096;14.470;2022-08-05T14:22:38;3.83;;;2.90;;
67867;SDS011;54672;46.096;14.470;2022-08-05T14:25:03;3.83;;;3.10;;
67867;SDS011;54672;46.096;14.470;2022-08-05T14:27:29;3.40;;;3.10;;
67867;SDS011;54672;46.096;14.470;2022-08-05T14:29:55;3.55;;;2.90;;
67867;SDS011;54672;46.096;14.470;2022-08-05T14:32:20;3.00;;;2.70;;
67867;SDS011;54672;46.096;14.470;2022-08-05T14:34:46;3.25;;;2.95;;
67867;SDS011;54672;46.096;14.470;2022-08-05T14:37:11;3.22;;;2.80;;
67867;SDS011;54672;46.096;14.470;2022-08-05T14:39:37;3.35;;;2.95;;
67867;SDS011;54672;46.096;14.470;2022-08-05T14:42:02;3.55;;;3.25;;
67867;SDS011;54672;46.096;14.470;2022-08-05T14:44:28;3.42;;;2.97;;
67867;SDS011;54672;46.096;14.470;2022-08-05T14:46:53;3.42;;;3.00;;
67867;SDS011;54672;46.096;14.470;2022-08-05T14:49:19;3.47;;;2.90;;
67867;SDS011;54672;46.096;14.470;2022-08-05T14:51:44;3.17;;;2.80;;
67867;SDS011;54672;46.096;14.470;2022-08-05T14:54:10;4.55;;;2.90;;
67867;SDS011;54672;46.096;14.470;2022-08-05T14:56:36;4.13;;;2.92;;
67867;SDS011;54672;46.096;14.470;2022-08-05T14:59:01;3.90;;;2.70;;
67867;SDS011;54672;46.096;14.470;2022-08-05T15:01:27;3.10;;;2.80;;
67867;SDS011;54672;46.096;14.470;2022-08-05T15:03:53;3.33;;;2.67;;
67867;SDS011;54672;46.096;14.470;2022-08-05T15:06:18;2.95;;;2.65;;
67867;SDS011;54672;46.096;14.470;2022-08-05T15:08:44;2.70;;;2.40;;
67867;SDS011;54672;46.096;14.470;2022-08-05T15:11:10;4.35;;;2.63;;
67867;SDS011;54672;46.096;14.470;2022-08-05T15:13:35;3.28;;;2.53;;
67867;SDS011;54672;46.096;14.470;2022-08-05T15:16:01;3.25;;;2.60;;